Flight Track Log - Related Links

Times and Time Zones

All times are in EDT time to prevent confusion due to time zone crossing. See the BJS524 flight status page for this flight to view local times or setup timezone preferences in your user account.

Time Position Orientation Groundspeed Altitude Reporting Facility
EDT Latitude Longitude Course Direction KTS MPH feet Rate Location/Type
Fri 04:46:28 PM 43.6558 -70.4142 300° West 188 216 4,500  Level Boston Center
Fri 04:47:28 PM 43.6906 -70.4961 300° West 231 266 9,000 3,850 Climbing Boston Center
Fri 04:48:28 PM 43.7256 -70.5928 297° West 262 302 12,200 2,950 Climbing Boston Center
Fri 04:49:28 PM 43.7625 -70.6836 299° West 295 339 14,900 2,800 Climbing Boston Center
Fri 04:50:28 PM 43.7747 -70.8183 277° West 319 367 17,800 2,800 Climbing Boston Center
Fri 04:51:28 PM 43.7367 -70.9286 245° Southwest 319 367 20,500 2,150 Climbing Boston Center
Fri 04:52:28 PM 43.6925 -71.0561 244° Southwest 347 399 22,100 1,250 Climbing Boston Center
Fri 04:53:28 PM 43.6483 -71.1978 247° West 374 430 23,000 800 Climbing Boston Center
Fri 04:54:28 PM 43.6017 -71.3419 246° West 401 461 23,700 1,700 Climbing Boston Center
Fri 04:55:28 PM 43.5572 -71.4803 246° West 407 468 26,400 2,100 Climbing Boston Center
Fri 04:56:28 PM 43.5103 -71.6214 245° Southwest 402 463 27,900 800 Climbing Boston Center
Fri 04:57:28 PM 43.4592 -71.7708 245° Southwest 415 478 28,000 50 Climbing Boston Center
Fri 04:58:28 PM 43.4078 -71.9228 245° Southwest 429 494 28,000  Level Boston Center
Fri 04:59:28 PM 43.3542 -72.0747 244° Southwest 440 506 28,000 -750 Level Boston Center
Fri 05:00:28 PM 43.3025 -72.2261 245° Southwest 446 513 26,500 -1,800 Descending Boston Center
Fri 05:01:28 PM 43.2569 -72.3689 246° West 434 499 24,400 -1,750 Descending Boston Center
Fri 05:02:28 PM 43.2089 -72.5083 245° Southwest 415 478 23,000 -1,200 Descending Boston Center
Fri 05:03:28 PM 43.1631 -72.6422 245° Southwest 404 465 22,000 -500 Descending Boston Center
Fri 05:04:28 PM 43.1064 -72.7869 242° Southwest 398 458 22,000  Level Boston Center
Fri 05:05:28 PM 43.0600 -72.9231 245° Southwest 393 452 22,000  Level Boston Center
Fri 05:06:28 PM 43.0156 -73.0647 247° West 403 464 22,000 -150 Level Boston Center
Fri 05:07:28 PM 42.9689 -73.1978 244° Southwest 403 464 21,700 -750 Descending Boston Center
Fri 05:08:28 PM 42.9200 -73.3331 244° Southwest 403 464 20,500 -1,200 Descending Boston Center
Fri 05:09:28 PM 42.8775 -73.4403 242° Southwest 403 464 19,300 -1,600 Descending Boston Center
Fri 05:10:28 PM 42.8239 -73.5922 244° Southwest 386 444 17,300 -1,650 Descending Boston Center
Fri 05:11:28 PM 42.7786 -73.7272 245° Southwest 385 443 16,000 -650 Descending Boston Center
Fri 05:12:28 PM 42.7211 -73.8389 235° Southwest 379 436 16,000  Level Boston Center
Fri 05:13:28 PM 42.6264 -73.9017 206° Southwest 368 423 16,000  Level Boston Center
Fri 05:14:28 PM 42.5403 -73.9589 206° Southwest 379 436 16,000  Level Boston Center
Fri 05:15:28 PM 42.4392 -74.0325 208° Southwest 384 442 16,000  Level Boston Center
Fri 05:16:29 PM 42.3592 -74.0922 209° Southwest 375 432 16,000 -500 Level Boston Center
Fri 05:17:28 PM 42.2581 -74.1681 209° Southwest 375 432 15,000 -1,210 Descending Boston Center
Fri 05:18:28 PM 42.1758 -74.2275 208° Southwest 380 437 13,600 -1,400 Descending Boston Center
Fri 05:19:28 PM 42.0914 -74.2894 209° Southwest 380 437 12,200 -750 Descending Boston Center
Fri 05:20:28 PM 41.9944 -74.3592 208° Southwest 375 432 12,100 -50 Descending Boston Center
Fri 05:21:28 PM 41.8972 -74.4286 208° Southwest 370 426 12,100 -450 Level Boston Center
Fri 05:22:28 PM 41.8297 -74.4767 208° Southwest 341 392 11,200 -1,250 Descending Boston Center
Fri 05:23:28 PM 41.7539 -74.5272 206° Southwest 294 338 9,600 -1,450 Descending Boston Center
Fri 05:24:28 PM 41.6869 -74.5389 187° South 269 310 8,300 -1,250 Descending Boston Center
Fri 05:25:28 PM 41.6075 -74.5558 189° South 259 298 7,100 -1,100 Descending Boston Center
Fri 05:26:28 PM 41.5406 -74.5675 187° South 264 304 6,100 -500 Descending Boston Center
Fri 05:27:28 PM 41.4608 -74.5842 189° South 264 304 6,100 -286 Level Boston Center
Fri 05:29:37 PM 41.3167 -74.5667 175° South 295 339 5,200 -571 Descending New York TRACON
Fri 05:30:37 PM 41.2667 -74.4833 129° Southeast 283 326 4,300 -550 Descending New York TRACON
Fri 05:31:37 PM 41.2167 -74.4000 129° Southeast 273 314 4,100 -381 Descending New York TRACON
Fri 05:32:43 PM 41.1667 -74.3000 124° Southeast 272 313 3,500 -500 Descending New York TRACON
Fri 05:33:37 PM 41.1333 -74.2333 124° Southeast 277 319 3,100 -200 Descending New York TRACON
Fri 05:34:43 PM 41.0833 -74.1500 129° Southeast 275 316 3,100 -476 Level New York TRACON
Fri 05:35:43 PM 41.0333 -74.0833 135° Southeast 266 306 2,100 -500 Descending New York TRACON
Fri 05:36:43 PM 40.9667 -74.0500 159° South 215 247 2,100 -400 Level New York TRACON
Fri 05:37:43 PM 40.9167 -74.0500 180° South 176 203 1,300 -789 Descending New York TRACON
Fri 05:38:37 PM 40.8833 -74.0500 180° South 141 162 600 -778 Descending New York TRACON
Fri 05:40:00 PM 40.8500 -74.0500 154° Southeast  Level FlightAware Approximate
Fri 05:47:00 PM 40.8501 -74.0608 154° Southeast  Level Estimated
Fri 05:48:00 PM 40.8501 -74.0608 154° Southeast  Level Estimated
Fri 05:49:00 PM 40.8501 -74.0608 154° Southeast  Level Estimated

Login

Don't have an account? Register now (free) for customized features, flight alerts, and more!